Time;durP1;ratioP1;P1;durP2;ratioP2;P2;SDS_P1;SDS_P2;PMS_P1;PMS_P2;Temp;Humidity;BMP_temperature;BMP_pressure;BME280_temperature;BME280_humidity;BME280_pressure;Samples;Min_cycle;Max_cycle;Signal;HPM_P1;HPM_P2
2022/08/15 00:00:49;;;;;;;3.17;2.97;;;27.20;46.30;;;;;;5013392;28;20038;-67
2022/08/15 00:03:31;;;;;;;3.47;3.17;;;27.10;46.50;;;;;;5016299;28;20013;-67
2022/08/15 00:06:00;;;;;;;3.00;2.72;;;27.00;46.60;;;;;;5018820;28;20030;-67
2022/08/15 00:08:28;;;;;;;4.00;3.15;;;27.00;46.70;;;;;;5033486;28;20392;-66
2022/08/15 00:11:11;;;;;;;3.53;3.22;;;26.90;46.90;;;;;;5033694;28;20032;-67
2022/08/15 00:13:38;;;;;;;3.90;3.40;;;26.80;47.00;;;;;;5028289;28;20088;-66
2022/08/15 00:16:05;;;;;;;3.25;2.95;;;26.80;47.20;;;;;;5033086;28;20061;-67
2022/08/15 00:18:31;;;;;;;3.30;3.00;;;26.80;47.20;;;;;;5033263;28;20036;-67
2022/08/15 00:20:58;;;;;;;3.05;2.75;;;26.80;47.20;;;;;;5016742;28;20033;-66
2022/08/15 00:23:26;;;;;;;4.90;3.30;;;26.80;47.10;;;;;;5023969;28;20033;-66
2022/08/15 00:25:57;;;;;;;3.80;3.50;;;26.70;47.40;;;;;;4999530;28;20112;-68
2022/08/15 00:28:25;;;;;;;4.43;3.80;;;26.60;47.70;;;;;;4996366;28;20057;-67
2022/08/15 00:30:50;;;;;;;6.07;5.18;;;26.60;47.90;;;;;;5013424;28;20105;-67
2022/08/15 00:33:16;;;;;;;4.15;3.75;;;26.50;48.70;;;;;;5012903;28;20445;-67
2022/08/15 00:35:47;;;;;;;4.85;3.25;;;26.50;48.20;;;;;;5012943;28;20030;-66
2022/08/15 00:38:16;;;;;;;3.40;3.10;;;26.50;48.10;;;;;;5013160;28;20505;-70
2022/08/15 00:43:37;;;;;;;3.88;3.47;;;26.50;48.00;;;;;;5013181;28;20085;-67
2022/08/15 00:46:08;;;;;;;3.55;3.25;;;26.40;48.10;;;;;;5012831;28;20112;-69
2022/08/15 00:48:43;;;;;;;3.85;3.55;;;26.40;48.20;;;;;;5012814;28;20036;-66
2022/08/15 00:51:22;;;;;;;3.40;3.10;;;26.40;48.20;;;;;;5012518;28;20524;-68
2022/08/15 00:53:58;;;;;;;2.80;2.60;;;26.40;48.10;;;;;;5012613;28;20104;-67
2022/08/15 00:56:31;;;;;;;3.28;2.90;;;26.50;48.00;;;;;;5012403;28;20072;-67
2022/08/15 00:58:58;;;;;;;3.75;3.05;;;26.50;48.00;;;;;;5011714;28;20034;-66
2022/08/15 01:01:23;;;;;;;3.30;3.00;;;26.50;48.10;;;;;;5012625;28;20030;-68
2022/08/15 01:03:50;;;;;;;3.80;3.50;;;26.50;48.20;;;;;;5012018;28;20099;-66
2022/08/15 01:06:17;;;;;;;3.50;3.20;;;26.40;48.50;;;;;;5012490;28;20038;-68
2022/08/15 01:08:46;;;;;;;4.25;3.47;;;26.30;48.60;;;;;;5012431;28;20034;-66
2022/08/15 01:11:22;;;;;;;3.83;3.42;;;26.30;48.80;;;;;;5011455;28;20140;-66
2022/08/15 01:13:49;;;;;;;4.03;3.70;;;26.30;49.10;;;;;;5010892;28;20147;-66
2022/08/15 01:16:15;;;;;;;3.95;3.55;;;26.20;49.20;;;;;;5012635;28;20083;-67
2022/08/15 01:18:42;;;;;;;4.45;3.40;;;26.20;49.20;;;;;;5012195;28;20551;-66
2022/08/15 01:21:17;;;;;;;4.22;3.65;;;26.10;49.30;;;;;;5012655;28;20428;-67
2022/08/15 01:23:48;;;;;;;4.10;3.70;;;26.10;49.50;;;;;;5011957;28;20100;-68
2022/08/15 01:26:15;;;;;;;4.72;3.63;;;26.10;49.60;;;;;;5011998;28;20515;-67
2022/08/15 01:28:44;;;;;;;4.22;3.65;;;26.10;49.60;;;;;;5012242;28;20037;-67
2022/08/15 01:31:14;;;;;;;4.32;3.30;;;26.00;49.80;;;;;;5012165;28;20100;-68
2022/08/15 01:33:51;;;;;;;3.90;3.30;;;26.00;49.90;;;;;;5011954;28;20033;-67
2022/08/15 01:36:19;;;;;;;4.95;3.78;;;26.00;50.10;;;;;;5011989;28;20109;-66
2022/08/15 01:38:53;;;;;;;4.03;3.63;;;26.00;50.20;;;;;;5004687;28;20022;-66
2022/08/15 01:41:21;;;;;;;3.67;3.28;;;25.90;50.30;;;;;;5011805;28;20112;-67
2022/08/15 01:44:17;;;;;;;3.75;3.45;;;25.90;50.30;;;;;;5011531;28;20068;-66
2022/08/15 01:46:50;;;;;;;4.78;3.72;;;25.90;50.30;;;;;;5010600;28;20021;-68
2022/08/15 01:49:22;;;;;;;4.32;3.63;;;25.90;50.60;;;;;;5011230;28;20022;-66
2022/08/15 01:51:49;;;;;;;4.07;3.60;;;25.80;50.50;;;;;;5011816;28;20068;-66
2022/08/15 01:54:16;;;;;;;3.60;3.30;;;25.80;50.50;;;;;;5011541;28;20030;-67
2022/08/15 01:56:45;;;;;;;5.18;3.70;;;25.80;50.50;;;;;;5011744;28;20029;-66
2022/08/15 01:59:14;;;;;;;3.70;3.40;;;25.80;50.40;;;;;;5011725;28;20109;-67
2022/08/15 02:01:44;;;;;;;4.00;3.60;;;25.80;50.40;;;;;;5011347;28;20037;-67
2022/08/15 02:04:12;;;;;;;4.30;3.90;;;25.80;50.50;;;;;;5011016;28;20025;-67
2022/08/15 02:06:38;;;;;;;4.78;3.40;;;25.70;50.50;;;;;;5011939;28;20477;-66
2022/08/15 02:09:09;;;;;;;3.97;3.55;;;25.70;50.50;;;;;;5011196;28;20370;-66
2022/08/15 02:11:35;;;;;;;3.88;3.08;;;25.70;50.60;;;;;;5010950;28;20105;-66
2022/08/15 02:14:01;;;;;;;4.40;3.20;;;25.70;50.50;;;;;;5009583;28;20148;-66
2022/08/15 02:16:30;;;;;;;3.22;2.90;;;25.70;50.40;;;;;;5011323;28;20686;-66
2022/08/15 02:18:59;;;;;;;4.00;3.15;;;25.70;50.30;;;;;;5011114;28;20508;-69
2022/08/15 02:21:24;;;;;;;3.40;3.10;;;25.80;50.10;;;;;;5011389;28;20101;-66
2022/08/15 02:23:50;;;;;;;2.78;2.58;;;25.90;50.10;;;;;;5010925;28;20121;-66
2022/08/15 02:26:16;;;;;;;2.40;2.20;;;25.90;50.00;;;;;;5007537;28;20506;-69
2022/08/15 02:28:42;;;;;;;2.97;2.67;;;25.90;49.80;;;;;;5009129;28;20180;-66
2022/08/15 02:31:16;;;;;;;2.63;2.42;;;25.90;49.70;;;;;;5011163;28;20396;-66
2022/08/15 02:33:48;;;;;;;5.75;4.00;;;25.90;49.70;;;;;;5009495;28;20026;-66
2022/08/15 02:36:16;;;;;;;4.22;3.80;;;25.90;49.80;;;;;;5010735;28;20032;-68
2022/08/15 02:38:47;;;;;;;5.63;3.95;;;25.90;50.00;;;;;;5011005;28;20034;-69
2022/08/15 02:41:15;;;;;;;4.03;3.40;;;25.70;50.50;;;;;;5011110;28;20030;-67
2022/08/15 02:43:43;;;;;;;5.50;3.70;;;25.60;50.60;;;;;;5009255;28;20040;-68
2022/08/15 02:46:09;;;;;;;4.30;3.90;;;25.50;50.90;;;;;;5011076;28;20029;-67
2022/08/15 02:48:36;;;;;;;4.13;3.72;;;25.50;51.30;;;;;;5010746;28;20026;-67
2022/08/15 02:51:01;;;;;;;5.38;4.20;;;25.40;51.40;;;;;;5011273;28;20138;-66
2022/08/15 02:53:27;;;;;;;3.63;3.33;;;25.30;51.60;;;;;;5009474;28;20124;-66
2022/08/15 02:55:52;;;;;;;3.72;3.35;;;25.30;51.70;;;;;;5010815;28;20040;-68
2022/08/15 02:58:18;;;;;;;4.28;3.58;;;25.30;51.70;;;;;;5010807;28;20022;-66
2022/08/15 03:00:45;;;;;;;3.90;3.50;;;25.30;51.70;;;;;;5010772;28;20084;-66
2022/08/15 03:03:14;;;;;;;4.28;3.88;;;25.30;51.80;;;;;;5010755;28;20469;-66
2022/08/15 03:05:43;;;;;;;3.63;3.00;;;25.20;52.10;;;;;;5010129;28;20033;-67
2022/08/15 03:08:09;;;;;;;4.00;3.60;;;25.10;51.90;;;;;;5010601;28;20373;-66
2022/08/15 03:10:37;;;;;;;4.78;3.33;;;25.10;52.10;;;;;;5010425;28;20071;-65
2022/08/15 03:13:07;;;;;;;3.40;3.10;;;25.10;52.20;;;;;;5010343;28;20033;-66
2022/08/15 03:15:53;;;;;;;3.50;3.20;;;25.10;52.00;;;;;;5000191;28;20053;-66
2022/08/15 03:18:24;;;;;;;3.90;3.60;;;25.10;52.10;;;;;;5005220;28;20029;-66
2022/08/15 03:20:51;;;;;;;3.03;2.72;;;25.10;52.10;;;;;;5010479;28;20022;-68
2022/08/15 03:23:19;;;;;;;3.70;3.38;;;25.20;52.10;;;;;;5009165;28;20057;-67
2022/08/15 03:25:50;;;;;;;3.33;3.03;;;25.10;52.00;;;;;;5008659;28;20033;-67
2022/08/15 03:28:18;;;;;;;4.22;3.28;;;25.20;52.00;;;;;;5010261;28;20064;-68
2022/08/15 03:30:44;;;;;;;4.03;3.53;;;25.20;52.10;;;;;;5010504;28;20029;-67
2022/08/15 03:33:09;;;;;;;4.25;3.85;;;25.10;52.50;;;;;;5008910;28;20038;-66
2022/08/15 03:35:42;;;;;;;3.80;3.38;;;25.10;52.50;;;;;;5010100;28;20026;-67
2022/08/15 03:38:07;;;;;;;4.05;3.50;;;25.10;52.60;;;;;;5009650;28;20481;-67
2022/08/15 03:40:34;;;;;;;5.13;3.22;;;25.00;52.50;;;;;;5009978;28;20029;-67
2022/08/15 03:43:03;;;;;;;4.45;3.35;;;25.00;52.60;;;;;;5010083;28;20034;-68
2022/08/15 03:45:29;;;;;;;3.35;3.03;;;25.00;52.60;;;;;;5013109;28;20022;-69
2022/08/15 03:47:55;;;;;;;3.55;3.25;;;24.90;52.60;;;;;;5024570;28;20021;-68
2022/08/15 03:50:21;;;;;;;3.65;3.35;;;24.90;52.70;;;;;;5011016;28;20456;-67
2022/08/15 03:52:59;;;;;;;3.92;3.28;;;24.90;52.80;;;;;;5011350;28;20030;-67
2022/08/15 03:55:26;;;;;;;3.67;3.33;;;24.90;53.50;;;;;;5009687;28;20120;-68
2022/08/15 03:57:53;;;;;;;4.22;3.20;;;24.90;53.00;;;;;;5010841;28;20032;-67
2022/08/15 04:00:23;;;;;;;3.80;3.22;;;24.80;53.00;;;;;;5009592;28;20068;-69
2022/08/15 04:02:48;;;;;;;3.90;3.50;;;24.80;53.20;;;;;;5010291;28;20020;-67
2022/08/15 04:05:14;;;;;;;4.35;3.42;;;24.80;53.40;;;;;;5002266;28;20097;-67
2022/08/15 04:07:39;;;;;;;3.42;3.13;;;24.80;53.40;;;;;;5008780;28;20025;-67
2022/08/15 04:10:11;;;;;;;3.83;3.42;;;24.70;53.60;;;;;;5009669;28;20030;-68
2022/08/15 04:12:40;;;;;;;3.85;3.40;;;24.60;53.80;;;;;;5010012;28;20029;-67
2022/08/15 04:15:10;;;;;;;3.78;3.25;;;24.50;54.00;;;;;;4998642;28;20026;-67
2022/08/15 04:17:35;;;;;;;4.05;3.40;;;24.50;54.10;;;;;;4990122;28;20041;-67
2022/08/15 04:20:02;;;;;;;3.60;3.28;;;24.50;54.20;;;;;;5001747;28;20029;-67
2022/08/15 04:22:43;;;;;;;4.63;3.38;;;24.50;54.20;;;;;;5009631;28;20508;-67
2022/08/15 04:25:16;;;;;;;3.80;3.40;;;24.50;54.30;;;;;;5009694;28;20501;-67
2022/08/15 04:27:42;;;;;;;4.03;3.63;;;24.50;54.30;;;;;;5009738;28;20257;-68
2022/08/15 04:30:10;;;;;;;4.65;3.42;;;24.40;54.30;;;;;;5009323;28;20511;-67
2022/08/15 04:32:35;;;;;;;3.75;3.35;;;24.40;54.50;;;;;;5009912;28;20037;-68
2022/08/15 04:35:02;;;;;;;4.40;3.70;;;24.40;54.60;;;;;;5008377;28;20037;-66
2022/08/15 04:37:32;;;;;;;4.60;3.38;;;24.40;54.60;;;;;;5008011;28;20019;-67
2022/08/15 04:39:57;;;;;;;4.13;3.60;;;24.40;54.70;;;;;;5023533;28;20026;-70
2022/08/15 04:42:24;;;;;;;3.88;3.47;;;24.40;54.70;;;;;;5024090;28;20057;-68
2022/08/15 04:44:51;;;;;;;5.57;3.60;;;24.40;54.90;;;;;;5023048;28;20022;-69
2022/08/15 04:47:17;;;;;;;4.10;3.53;;;24.30;55.00;;;;;;5017652;28;20053;-67
2022/08/15 04:49:44;;;;;;;5.15;3.72;;;24.30;55.20;;;;;;5013244;28;20064;-68
2022/08/15 04:52:13;;;;;;;5.22;3.78;;;24.30;55.20;;;;;;5012262;28;20025;-67
2022/08/15 04:54:40;;;;;;;4.72;3.80;;;24.30;55.50;;;;;;5013635;28;20033;-67
2022/08/15 04:57:06;;;;;;;5.00;4.22;;;24.20;55.80;;;;;;5012831;28;20105;-67
2022/08/15 04:59:32;;;;;;;4.65;4.13;;;24.20;56.30;;;;;;5013148;28;20176;-67
2022/08/15 05:01:58;;;;;;;6.00;5.10;;;24.10;56.40;;;;;;5012810;28;20026;-67
2022/08/15 05:04:24;;;;;;;5.20;4.70;;;24.10;57.30;;;;;;5012990;28;20376;-67
2022/08/15 05:06:50;;;;;;;5.28;4.78;;;24.00;57.50;;;;;;5012905;28;20029;-68
2022/08/15 05:09:15;;;;;;;6.47;5.88;;;24.00;57.60;;;;;;5013073;28;20018;-68
2022/08/15 05:11:41;;;;;;;6.00;5.40;;;24.00;58.30;;;;;;5012572;28;20036;-69
2022/08/15 05:14:06;;;;;;;5.20;4.70;;;23.90;58.40;;;;;;5012449;28;20643;-66
2022/08/15 05:16:33;;;;;;;5.82;5.22;;;23.90;58.40;;;;;;5012721;28;20109;-69
2022/08/15 05:18:59;;;;;;;6.32;5.72;;;23.90;58.50;;;;;;5012669;28;20022;-67
2022/08/15 05:21:25;;;;;;;6.47;5.40;;;23.90;58.80;;;;;;5012258;28;20022;-67
2022/08/15 05:23:51;;;;;;;7.78;6.00;;;23.90;58.90;;;;;;5012776;28;20037;-67
2022/08/15 05:26:16;;;;;;;5.90;5.30;;;23.90;58.80;;;;;;5013324;28;20166;-66
2022/08/15 05:28:42;;;;;;;7.07;6.38;;;24.00;58.70;;;;;;5012919;28;20030;-67
2022/08/15 05:31:10;;;;;;;7.10;6.40;;;24.00;58.80;;;;;;5012460;28;20067;-68
2022/08/15 05:33:37;;;;;;;8.45;7.20;;;24.10;59.00;;;;;;5011981;28;20041;-69
2022/08/15 05:36:05;;;;;;;7.30;6.60;;;24.10;59.00;;;;;;5012000;28;20021;-67
2022/08/15 05:38:40;;;;;;;7.40;6.38;;;24.10;58.90;;;;;;5011761;28;20034;-67
2022/08/15 05:41:28;;;;;;;7.93;6.90;;;24.10;58.80;;;;;;5011730;28;20053;-69
2022/08/15 05:44:06;;;;;;;8.80;7.90;;;24.20;58.80;;;;;;5004928;28;20026;-67
2022/08/15 05:46:50;;;;;;;6.20;5.60;;;24.20;58.90;;;;;;4993148;28;20425;-67
2022/08/15 05:49:50;;;;;;;6.82;5.78;;;24.20;58.70;;;;;;5010854;28;20022;-67
2022/08/15 05:52:55;;;;;;;8.85;6.43;;;24.60;58.20;;;;;;5011289;28;20361;-67
2022/08/15 05:55:42;;;;;;;6.90;5.57;;;25.70;56.40;;;;;;4990251;28;20573;-68
2022/08/15 05:58:29;;;;;;;6.05;5.38;;;26.30;54.40;;;;;;4992147;28;20384;-66
2022/08/15 06:01:08;;;;;;;6.50;5.32;;;26.60;52.90;;;;;;4992294;28;20050;-68
2022/08/15 06:03:38;;;;;;;7.15;5.35;;;26.30;53.10;;;;;;5021989;28;20041;-67
2022/08/15 06:06:12;;;;;;;4.95;4.45;;;25.90;53.60;;;;;;5026486;28;20014;-67
2022/08/15 06:08:47;;;;;;;7.07;4.30;;;25.80;53.90;;;;;;5011337;28;20022;-68
2022/08/15 06:11:17;;;;;;;4.18;3.78;;;26.50;53.10;;;;;;5011632;28;20491;-68
2022/08/15 06:14:00;;;;;;;4.15;3.75;;;27.20;51.50;;;;;;5010983;28;20040;-68
2022/08/15 06:16:36;;;;;;;6.22;3.70;;;27.90;50.10;;;;;;5010851;28;20508;-67
2022/08/15 06:19:06;;;;;;;4.90;2.97;;;28.40;48.80;;;;;;5011246;28;20022;-68
2022/08/15 06:21:48;;;;;;;3.78;2.95;;;28.60;48.00;;;;;;5011370;28;20030;-67
2022/08/15 06:24:29;;;;;;;4.70;2.40;;;28.50;47.60;;;;;;5011116;28;20034;-67
2022/08/15 06:27:17;;;;;;;3.17;2.60;;;28.10;48.10;;;;;;5011332;28;20384;-68
2022/08/15 06:30:02;;;;;;;3.58;2.65;;;28.30;47.90;;;;;;5010884;28;20033;-67
2022/08/15 06:32:34;;;;;;;3.38;2.30;;;28.90;47.20;;;;;;5007107;28;20488;-67
2022/08/15 06:35:33;;;;;;;2.90;2.10;;;29.30;46.00;;;;;;4991676;28;20440;-68
2022/08/15 06:38:07;;;;;;;4.85;2.58;;;29.90;45.40;;;;;;5002509;28;20526;-66
2022/08/15 06:41:04;;;;;;;3.63;2.08;;;30.80;44.00;;;;;;5010916;28;20029;-66
2022/08/15 06:43:30;;;;;;;3.83;2.15;;;31.40;42.80;;;;;;5010689;28;20084;-67
2022/08/15 06:45:58;;;;;;;2.42;2.13;;;31.80;41.60;;;;;;5011035;28;20026;-66
2022/08/15 06:48:33;;;;;;;3.67;1.90;;;31.30;41.70;;;;;;5010968;28;20100;-66
2022/08/15 06:51:02;;;;;;;2.15;1.80;;;30.40;43.00;;;;;;5010423;28;20026;-67
2022/08/15 06:53:52;;;;;;;4.10;2.10;;;29.90;43.80;;;;;;5010336;28;20519;-67
2022/08/15 06:56:43;;;;;;;3.88;1.60;;;29.20;44.20;;;;;;5010910;28;20045;-66
2022/08/15 06:59:24;;;;;;;4.10;1.67;;;28.70;45.20;;;;;;5010269;28;20046;-67
2022/08/15 07:02:36;;;;;;;1.70;1.60;;;28.10;45.80;;;;;;5003636;28;20041;-66
2022/08/15 07:05:34;;;;;;;1.83;1.63;;;27.80;46.80;;;;;;4986460;28;20042;-69
2022/08/15 07:08:17;;;;;;;3.42;1.92;;;27.40;47.50;;;;;;5004580;28;20431;-67
2022/08/15 07:10:52;;;;;;;3.05;1.70;;;27.00;48.00;;;;;;5010548;28;20104;-66
2022/08/15 07:13:23;;;;;;;3.50;1.90;;;26.80;48.40;;;;;;5010758;28;20037;-67
2022/08/15 07:16:13;;;;;;;3.60;1.55;;;26.70;48.70;;;;;;5010094;28;20034;-68
2022/08/15 07:18:44;;;;;;;2.15;1.70;;;26.60;48.70;;;;;;5010626;28;20030;-69
2022/08/15 07:21:13;;;;;;;1.55;1.45;;;26.60;48.80;;;;;;5010207;28;20032;-67
2022/08/15 07:24:05;;;;;;;2.53;1.65;;;26.60;48.70;;;;;;5010433;28;20018;-66
2022/08/15 07:26:38;;;;;;;2.42;1.70;;;26.50;48.70;;;;;;5010048;28;20061;-67
2022/08/15 07:29:12;;;;;;;3.03;1.70;;;26.50;48.80;;;;;;5008581;28;20396;-68
2022/08/15 07:31:38;;;;;;;2.35;1.67;;;26.50;48.70;;;;;;5000041;28;20390;-68
2022/08/15 07:34:16;;;;;;;2.65;1.90;;;26.40;48.60;;;;;;5003064;28;20093;-68
2022/08/15 07:36:59;;;;;;;2.65;1.70;;;26.40;48.80;;;;;;5007204;28;20041;-67
2022/08/15 07:39:41;;;;;;;3.90;1.83;;;26.30;49.00;;;;;;5011314;28;20381;-66
2022/08/15 07:42:18;;;;;;;3.72;1.80;;;26.30;49.20;;;;;;5003551;28;20033;-67
2022/08/15 07:44:59;;;;;;;2.13;1.70;;;26.20;49.30;;;;;;5003460;28;20014;-68
2022/08/15 07:47:30;;;;;;;3.10;1.85;;;26.30;49.40;;;;;;5010567;28;20033;-66
2022/08/15 07:50:16;;;;;;;2.55;1.77;;;26.30;49.50;;;;;;5005226;28;20137;-67
2022/08/15 07:52:42;;;;;;;2.47;1.65;;;26.40;49.40;;;;;;5012017;28;20038;-68
2022/08/15 07:55:18;;;;;;;2.92;1.80;;;26.40;49.40;;;;;;5010075;28;20029;-66
2022/08/15 07:58:05;;;;;;;2.22;1.65;;;26.60;49.50;;;;;;5008200;28;20504;-67
2022/08/15 08:00:34;;;;;;;2.22;1.65;;;26.60;49.50;;;;;;5010531;28;20034;-67
2022/08/15 08:03:08;;;;;;;4.32;1.80;;;26.60;49.50;;;;;;5008113;28;20034;-67
2022/08/15 08:05:57;;;;;;;2.25;1.70;;;26.60;49.40;;;;;;5007878;28;20101;-66
2022/08/15 08:08:46;;;;;;;2.78;1.90;;;26.80;49.60;;;;;;5006966;28;20022;-69
2022/08/15 08:11:44;;;;;;;3.53;1.90;;;26.90;49.30;;;;;;5011115;28;20381;-68
2022/08/15 08:14:26;;;;;;;2.35;2.13;;;27.00;49.10;;;;;;5011411;28;20033;-67
2022/08/15 08:16:59;;;;;;;3.45;1.70;;;27.10;48.90;;;;;;5015335;28;20026;-68
2022/08/15 08:19:40;;;;;;;2.15;1.80;;;27.10;48.90;;;;;;5027730;28;20051;-67
2022/08/15 08:22:18;;;;;;;2.13;1.80;;;27.20;48.90;;;;;;5010471;28;20026;-67
2022/08/15 08:25:07;;;;;;;3.15;1.98;;;27.30;48.70;;;;;;5016328;28;20524;-66
2022/08/15 08:28:02;;;;;;;1.90;1.80;;;27.20;48.60;;;;;;5012273;28;20496;-67
2022/08/15 08:30:38;;;;;;;3.55;2.00;;;27.20;48.60;;;;;;5011049;28;20032;-67
2022/08/15 08:33:46;;;;;;;2.42;1.98;;;27.20;48.60;;;;;;5011839;28;20141;-67
2022/08/15 08:36:27;;;;;;;2.30;1.90;;;27.20;48.60;;;;;;4969784;28;21193;-66
2022/08/15 08:39:18;;;;;;;4.03;1.88;;;27.20;48.60;;;;;;5012230;28;20041;-69
2022/08/15 08:41:56;;;;;;;1.53;1.43;;;27.20;48.60;;;;;;5011233;28;20049;-67
2022/08/15 08:45:07;;;;;;;3.25;2.17;;;27.30;48.50;;;;;;5012313;28;20629;-67
2022/08/15 08:48:15;;;;;;;3.95;2.30;;;27.40;48.30;;;;;;4965949;28;20398;-67
2022/08/15 08:50:58;;;;;;;2.50;1.85;;;27.20;48.30;;;;;;4896852;29;20037;-67
2022/08/15 08:53:37;;;;;;;4.80;2.63;;;27.20;48.50;;;;;;5005679;28;20029;-68
2022/08/15 08:56:14;;;;;;;3.75;2.33;;;27.20;48.30;;;;;;5011252;28;20038;-67
2022/08/15 08:58:47;;;;;;;3.42;1.98;;;27.30;48.30;;;;;;5015327;28;20494;-68
2022/08/15 09:01:16;;;;;;;3.72;2.53;;;27.40;48.10;;;;;;5009531;28;20476;-67
2022/08/15 09:03:46;;;;;;;3.58;2.17;;;27.40;47.90;;;;;;5009598;28;20436;-68
2022/08/15 09:06:17;;;;;;;2.05;1.80;;;27.40;48.00;;;;;;5009357;28;20022;-67
2022/08/15 09:08:51;;;;;;;4.30;2.33;;;27.50;47.80;;;;;;5010473;28;20109;-67
2022/08/15 09:11:47;;;;;;;3.42;2.03;;;27.60;47.60;;;;;;5012615;28;20067;-68
2022/08/15 09:14:17;;;;;;;2.67;2.40;;;27.70;47.50;;;;;;5007554;28;20049;-67
2022/08/15 09:16:45;;;;;;;4.00;3.22;;;27.70;47.50;;;;;;5013506;28;20021;-68
2022/08/15 09:19:47;;;;;;;3.97;3.10;;;27.60;47.60;;;;;;5013821;28;20445;-69
2022/08/15 09:22:13;;;;;;;4.35;3.75;;;27.50;47.90;;;;;;5008606;28;20481;-67
2022/08/15 09:24:40;;;;;;;4.32;3.25;;;27.40;47.70;;;;;;5013812;28;20018;-69
2022/08/15 09:27:10;;;;;;;5.22;3.33;;;27.40;48.00;;;;;;5010058;28;20026;-68
2022/08/15 09:29:44;;;;;;;5.07;3.35;;;27.40;48.10;;;;;;5009697;28;20033;-67
2022/08/15 09:32:27;;;;;;;5.78;3.28;;;27.40;48.30;;;;;;5010617;28;20022;-67
2022/08/15 09:35:11;;;;;;;7.10;5.60;;;27.40;48.40;;;;;;5013875;28;20030;-69
2022/08/15 09:37:49;;;;;;;5.65;3.90;;;27.20;49.00;;;;;;5012447;28;20029;-66
2022/08/15 09:40:55;;;;;;;4.80;3.50;;;27.00;49.40;;;;;;5010987;28;20030;-66
2022/08/15 09:43:43;;;;;;;7.20;3.63;;;27.00;49.50;;;;;;5004389;28;20034;-68
2022/08/15 09:46:26;;;;;;;3.72;3.33;;;27.10;49.50;;;;;;5010397;28;20018;-69
2022/08/15 09:49:35;;;;;;;4.53;2.53;;;27.00;49.40;;;;;;5010576;28;20105;-68
2022/08/15 09:52:25;;;;;;;4.53;3.13;;;27.10;49.40;;;;;;4997225;28;20033;-67
2022/08/15 09:54:58;;;;;;;3.65;2.70;;;27.00;49.30;;;;;;5010363;28;20397;-66
2022/08/15 09:57:48;;;;;;;5.68;2.83;;;27.10;49.30;;;;;;5011803;28;20992;-68
2022/08/15 10:00:15;;;;;;;3.63;2.30;;;27.10;49.20;;;;;;5011372;28;20508;-67
2022/08/15 10:02:42;;;;;;;2.33;2.00;;;27.20;49.00;;;;;;5013241;28;20117;-66
2022/08/15 10:05:23;;;;;;;3.05;2.28;;;27.20;48.90;;;;;;5013573;28;20454;-67
2022/08/15 10:07:54;;;;;;;3.70;2.58;;;27.20;48.80;;;;;;5009967;28;20037;-67
2022/08/15 10:10:23;;;;;;;3.20;2.40;;;27.20;48.90;;;;;;5013901;28;20022;-67
2022/08/15 10:13:07;;;;;;;3.47;3.00;;;27.20;49.00;;;;;;5011192;28;20465;-68
2022/08/15 10:15:43;;;;;;;4.05;2.95;;;27.20;49.10;;;;;;5011828;28;20416;-67
2022/08/15 10:18:26;;;;;;;3.47;2.60;;;27.10;49.30;;;;;;5007424;28;20034;-69
2022/08/15 10:20:55;;;;;;;2.05;1.85;;;27.00;49.40;;;;;;5009116;28;20034;-67
2022/08/15 10:23:45;;;;;;;2.33;1.92;;;27.10;49.40;;;;;;5012386;28;20142;-67
2022/08/15 10:26:24;;;;;;;5.88;2.90;;;27.20;49.40;;;;;;5009172;28;20034;-67
2022/08/15 10:29:09;;;;;;;5.25;3.08;;;27.10;49.80;;;;;;5012263;28;20033;-69
2022/08/15 10:31:50;;;;;;;6.47;4.53;;;27.10;50.00;;;;;;5008245;28;20029;-67
2022/08/15 10:34:35;;;;;;;6.25;3.60;;;27.00;50.30;;;;;;5010304;28;20044;-68
2022/08/15 10:37:21;;;;;;;4.72;4.05;;;26.90;50.70;;;;;;5011440;28;20021;-67
2022/08/15 10:40:38;;;;;;;5.55;3.72;;;26.90;51.30;;;;;;5009173;28;20429;-67
2022/08/15 10:43:21;;;;;;;5.70;3.28;;;26.90;51.60;;;;;;4985776;28;20045;-67
2022/08/15 10:46:04;;;;;;;4.32;3.47;;;26.90;52.10;;;;;;5010127;28;20045;-67
2022/08/15 10:48:49;;;;;;;5.45;4.10;;;26.90;52.50;;;;;;5013230;28;20026;-67
2022/08/15 10:51:36;;;;;;;6.35;4.43;;;26.90;52.60;;;;;;5009531;28;20072;-69
2022/08/15 10:54:10;;;;;;;4.35;3.55;;;26.90;52.70;;;;;;5009709;28;20036;-68
2022/08/15 10:56:38;;;;;;;5.95;4.45;;;27.00;52.70;;;;;;5009267;28;20104;-68
2022/08/15 10:59:10;;;;;;;4.65;4.05;;;27.20;52.70;;;;;;5011538;28;20025;-68
2022/08/15 11:01:38;;;;;;;6.05;4.30;;;27.40;52.50;;;;;;5011643;28;20033;-67
2022/08/15 11:04:07;;;;;;;8.73;5.35;;;27.50;52.20;;;;;;5009469;28;20037;-68
2022/08/15 11:06:40;;;;;;;6.25;4.20;;;27.60;52.20;;;;;;5008169;28;20053;-68
2022/08/15 11:09:09;;;;;;;7.00;5.55;;;27.70;52.20;;;;;;5008354;28;20711;-69
2022/08/15 11:11:43;;;;;;;8.43;6.88;;;27.70;52.20;;;;;;5022015;28;20026;-67
2022/08/15 11:14:21;;;;;;;6.28;5.30;;;27.80;52.20;;;;;;5007813;28;20044;-67
2022/08/15 11:16:51;;;;;;;5.95;4.75;;;27.70;52.30;;;;;;5007093;28;20022;-67
2022/08/15 11:19:33;;;;;;;6.68;4.80;;;27.80;52.20;;;;;;5008149;28;20128;-68
2022/08/15 11:22:17;;;;;;;6.07;4.55;;;27.90;52.00;;;;;;5005289;28;20424;-67
2022/08/15 11:24:54;;;;;;;7.97;6.00;;;28.10;51.90;;;;;;5008333;28;20018;-67
2022/08/15 11:27:24;;;;;;;7.78;5.88;;;28.10;52.10;;;;;;5012671;28;20125;-67
2022/08/15 11:29:52;;;;;;;8.45;6.32;;;28.10;52.20;;;;;;5008354;28;20025;-67
2022/08/15 11:32:26;;;;;;;8.02;5.80;;;28.10;52.20;;;;;;5010717;28;20026;-67
2022/08/15 11:34:52;;;;;;;7.78;5.90;;;28.00;52.50;;;;;;5008454;28;20029;-67
2022/08/15 11:37:23;;;;;;;7.93;5.82;;;27.90;52.80;;;;;;5008932;28;20124;-67
2022/08/15 11:40:06;;;;;;;7.30;5.45;;;27.80;53.00;;;;;;5008198;28;20026;-67
2022/08/15 11:42:39;;;;;;;8.48;5.00;;;27.70;53.00;;;;;;5006452;28;20030;-67
2022/08/15 11:45:14;;;;;;;5.75;4.50;;;27.70;53.10;;;;;;5007597;28;20021;-69
2022/08/15 11:47:47;;;;;;;6.75;5.18;;;27.70;53.00;;;;;;5014290;28;20029;-68
2022/08/15 11:50:33;;;;;;;5.80;4.43;;;27.70;53.10;;;;;;5009358;28;20029;-67
2022/08/15 11:53:03;;;;;;;6.35;4.47;;;27.80;53.20;;;;;;5013953;28;20037;-67
2022/08/15 11:55:32;;;;;;;6.05;5.15;;;27.80;53.30;;;;;;5012338;28;20038;-66
2022/08/15 11:58:12;;;;;;;5.85;4.70;;;27.70;53.30;;;;;;5010725;28;20026;-68
2022/08/15 12:00:50;;;;;;;4.30;3.58;;;27.70;53.40;;;;;;5010170;28;20037;-68
2022/08/15 12:03:23;;;;;;;7.40;4.55;;;27.70;53.30;;;;;;5011749;28;20017;-68
2022/08/15 12:05:55;;;;;;;5.85;4.28;;;27.80;53.30;;;;;;5014326;28;20034;-67
2022/08/15 12:08:30;;;;;;;6.90;5.78;;;27.90;53.30;;;;;;5012513;28;20069;-67
2022/08/15 12:11:06;;;;;;;8.55;6.13;;;27.90;53.20;;;;;;5013302;28;20409;-68
2022/08/15 12:13:32;;;;;;;7.20;5.43;;;27.90;53.30;;;;;;5015087;28;20415;-68
2022/08/15 12:15:58;;;;;;;5.10;4.38;;;27.80;53.40;;;;;;5012154;28;20105;-68
2022/08/15 12:18:24;;;;;;;6.88;4.00;;;27.90;53.30;;;;;;5015284;28;20092;-66
2022/08/15 12:20:55;;;;;;;6.68;5.70;;;28.00;53.20;;;;;;5013717;28;20038;-67
2022/08/15 12:23:45;;;;;;;8.55;5.45;;;27.90;53.00;;;;;;5014036;28;20033;-67
2022/08/15 12:26:13;;;;;;;9.10;4.60;;;27.90;53.20;;;;;;5015095;28;20030;-67
2022/08/15 12:28:41;;;;;;;4.53;3.85;;;27.90;53.10;;;;;;5011119;28;20097;-69
2022/08/15 12:31:22;;;;;;;5.60;4.03;;;27.90;53.10;;;;;;5010355;28;20021;-67
2022/08/15 12:34:00;;;;;;;7.15;4.75;;;28.00;53.20;;;;;;5011548;28;20033;-68
2022/08/15 12:36:26;;;;;;;4.75;3.95;;;27.90;53.10;;;;;;5013232;28;20053;-67
2022/08/15 12:38:52;;;;;;;5.00;3.95;;;28.00;53.10;;;;;;5013599;28;20457;-67
2022/08/15 12:41:17;;;;;;;6.00;4.35;;;28.00;53.00;;;;;;5013904;28;20026;-68
2022/08/15 12:43:43;;;;;;;4.97;4.10;;;28.10;53.00;;;;;;5010198;28;20034;-68
2022/08/15 12:46:09;;;;;;;6.43;4.55;;;28.10;52.90;;;;;;5012591;28;20032;-67
2022/08/15 12:48:35;;;;;;;7.57;4.82;;;28.20;52.80;;;;;;5011968;28;20670;-67
2022/08/15 12:51:02;;;;;;;5.72;4.13;;;28.20;52.70;;;;;;5011735;28;20584;-65
2022/08/15 12:53:28;;;;;;;6.75;5.28;;;28.30;52.80;;;;;;5013966;28;20109;-68
2022/08/15 12:55:53;;;;;;;6.32;4.20;;;28.30;52.60;;;;;;5011280;28;20093;-68
2022/08/15 12:58:19;;;;;;;5.00;3.60;;;28.20;52.60;;;;;;5013035;28;20042;-67
2022/08/15 13:00:51;;;;;;;6.57;4.43;;;28.30;52.60;;;;;;5015169;28;20025;-66
2022/08/15 13:03:19;;;;;;;6.60;5.43;;;28.30;52.60;;;;;;5011909;28;20084;-67
2022/08/15 13:05:53;;;;;;;8.82;5.72;;;28.10;52.60;;;;;;5012685;28;20029;-68
2022/08/15 13:08:19;;;;;;;8.85;5.85;;;28.00;52.90;;;;;;5014830;28;20014;-67
2022/08/15 13:10:44;;;;;;;6.20;4.53;;;27.80;53.10;;;;;;5009138;28;20021;-66
2022/08/15 13:13:12;;;;;;;5.47;4.20;;;27.80;53.20;;;;;;5010124;28;20084;-66
2022/08/15 13:15:38;;;;;;;5.43;4.38;;;27.90;53.10;;;;;;5010019;28;20069;-67
2022/08/15 13:18:04;;;;;;;5.95;4.25;;;28.00;52.90;;;;;;5012255;28;20030;-67
2022/08/15 13:25:59;;;;;;;6.47;5.28;;;28.30;52.30;;;;;;5014181;28;20091;-67
2022/08/15 13:28:25;;;;;;;8.85;5.70;;;28.20;52.30;;;;;;5011525;28;20030;-68
2022/08/15 13:30:51;;;;;;;5.43;4.28;;;28.10;52.30;;;;;;5013824;28;20021;-68